Time;durP1;ratioP1;P1;durP2;ratioP2;P2;SDS_P1;SDS_P2;PMS_P1;PMS_P2;Temp;Humidity;BMP_temperature;BMP_pressure;BME280_temperature;BME280_humidity;BME280_pressure;Samples;Min_cycle;Max_cycle;Signal;HPM_P1;HPM_P2
2021/01/04 00:02:06;;;;;;;23.70;16.07;;;5.50;99.90;;;;;;6252576;28;20486;-61
2021/01/04 00:05:30;;;;;;;26.50;16.63;;;5.40;99.90;;;;;;6252861;28;20482;-59
2021/01/04 00:08:55;;;;;;;29.43;17.93;;;5.50;99.90;;;;;;6262653;28;20462;-62
2021/01/04 00:12:05;;;;;;;22.40;15.53;;;5.40;99.90;;;;;;6277006;28;20467;-65
2021/01/04 00:15:11;;;;;;;27.50;18.70;;;5.40;99.90;;;;;;6277054;28;20970;-66
2021/01/04 00:18:41;;;;;;;24.77;16.77;;;5.40;99.90;;;;;;6277245;28;20489;-67
2021/01/04 00:21:54;;;;;;;25.83;17.90;;;5.40;99.90;;;;;;6266340;28;20464;-68
2021/01/04 00:25:08;;;;;;;25.13;17.00;;;5.40;99.90;;;;;;6252308;28;20468;-65
2021/01/04 00:28:13;;;;;;;27.30;19.00;;;5.40;99.90;;;;;;6252365;28;20467;-65
2021/01/04 00:31:19;;;;;;;33.43;19.17;;;5.50;99.90;;;;;;6251766;28;20471;-67
2021/01/04 00:34:25;;;;;;;31.37;19.87;;;5.50;99.90;;;;;;6252083;28;20810;-65
2021/01/04 00:38:08;;;;;;;40.00;20.67;;;5.50;99.90;;;;;;6252089;28;20480;-64
2021/01/04 00:41:22;;;;;;;30.00;18.93;;;5.50;99.90;;;;;;6176384;28;20485;-65
2021/01/04 00:44:34;;;;;;;37.83;22.00;;;5.50;99.90;;;;;;6188955;28;20469;-63
2021/01/04 00:47:47;;;;;;;29.93;20.73;;;5.60;99.90;;;;;;6276241;28;20470;-64
2021/01/04 00:51:24;;;;;;;35.90;20.07;;;5.60;99.90;;;;;;6276248;28;20474;-64
2021/01/04 00:54:46;;;;;;;36.63;20.37;;;5.60;99.90;;;;;;6269606;28;20970;-66
2021/01/04 00:58:21;;;;;;;38.70;20.33;;;5.60;99.90;;;;;;6276148;28;20474;-62
2021/01/04 01:01:30;;;;;;;32.17;20.13;;;5.60;99.90;;;;;;6276049;28;20873;-63
2021/01/04 01:04:40;;;;;;;30.47;18.60;;;5.70;99.90;;;;;;6250376;28;20440;-63
2021/01/04 01:08:14;;;;;;;31.50;18.57;;;5.70;99.90;;;;;;6251408;28;20443;-62
2021/01/04 01:11:39;;;;;;;28.33;17.27;;;5.80;99.90;;;;;;6224986;28;20979;-64
2021/01/04 01:14:45;;;;;;;26.70;18.53;;;5.80;99.90;;;;;;6275640;28;20471;-64
2021/01/04 01:18:24;;;;;;;28.90;19.80;;;5.80;99.90;;;;;;6273558;28;20488;-63
2021/01/04 01:21:28;;;;;;;26.37;16.83;;;5.80;99.90;;;;;;6272816;28;20463;-63
2021/01/04 01:24:32;;;;;;;27.23;19.67;;;5.70;99.90;;;;;;6268289;28;20470;-63
2021/01/04 01:27:48;;;;;;;22.83;17.43;;;5.70;99.90;;;;;;6272330;28;20482;-65
2021/01/04 01:31:11;;;;;;;20.70;15.57;;;5.70;99.90;;;;;;6272458;28;20466;-63
2021/01/04 01:34:30;;;;;;;23.03;16.50;;;5.80;99.90;;;;;;6274962;28;20474;-63
2021/01/04 01:38:06;;;;;;;21.90;14.53;;;5.80;99.90;;;;;;6275339;28;20918;-62
2021/01/04 01:41:33;;;;;;;25.83;15.70;;;5.80;99.90;;;;;;6274525;28;20951;-63
2021/01/04 01:44:41;;;;;;;19.97;15.43;;;5.80;99.90;;;;;;6275167;28;20844;-64
2021/01/04 01:47:50;;;;;;;19.00;14.70;;;5.80;99.90;;;;;;6275418;28;20482;-63
2021/01/04 01:50:58;;;;;;;18.13;14.10;;;5.80;99.90;;;;;;6275116;28;20490;-63
2021/01/04 01:54:17;;;;;;;17.27;13.53;;;5.80;99.90;;;;;;6275390;28;20471;-63
2021/01/04 01:57:54;;;;;;;15.70;12.90;;;5.90;99.90;;;;;;6275097;28;20475;-63
2021/01/04 02:01:05;;;;;;;21.03;14.67;;;5.80;99.90;;;;;;6219566;28;20472;-64
2021/01/04 02:04:16;;;;;;;17.00;14.80;;;5.80;99.90;;;;;;6276975;28;20839;-63
2021/01/04 02:07:26;;;;;;;23.47;17.07;;;5.80;99.90;;;;;;6274829;28;20773;-63
2021/01/04 02:10:33;;;;;;;18.63;15.17;;;5.80;99.90;;;;;;6275175;28;20458;-62
2021/01/04 02:13:43;;;;;;;20.90;15.67;;;5.90;99.90;;;;;;6274338;28;20581;-63
2021/01/04 02:17:02;;;;;;;18.10;14.17;;;5.90;99.90;;;;;;6274462;28;20465;-63
2021/01/04 02:20:37;;;;;;;16.23;13.70;;;5.80;99.90;;;;;;6274837;28;20481;-63
2021/01/04 02:23:47;;;;;;;20.93;15.13;;;5.90;99.90;;;;;;6274714;28;20816;-63
2021/01/04 02:26:58;;;;;;;14.93;11.67;;;5.80;99.90;;;;;;6274707;28;20790;-63
2021/01/04 02:30:00;;;;;;;17.53;12.60;;;5.80;99.90;;;;;;6274560;28;20474;-64
2021/01/04 02:33:04;;;;;;;14.20;10.80;;;5.80;99.90;;;;;;6274832;28;20474;-63
2021/01/04 02:36:06;;;;;;;14.33;10.03;;;5.80;99.90;;;;;;6274279;28;20470;-64
2021/01/04 02:39:12;;;;;;;16.37;12.10;;;5.80;99.90;;;;;;6274259;28;20477;-64
2021/01/04 02:42:17;;;;;;;17.73;13.27;;;5.90;99.90;;;;;;6274548;28;20481;-63
2021/01/04 02:45:24;;;;;;;16.17;12.00;;;5.80;99.90;;;;;;6274468;28;20502;-65
2021/01/04 02:48:40;;;;;;;14.20;11.47;;;5.90;99.90;;;;;;6274565;28;20485;-64
2021/01/04 02:51:47;;;;;;;17.43;13.73;;;5.90;99.90;;;;;;6274052;28;20485;-63
2021/01/04 02:54:54;;;;;;;13.87;11.73;;;6.00;99.90;;;;;;6273842;28;20556;-65
2021/01/04 02:58:04;;;;;;;16.97;12.33;;;6.00;99.90;;;;;;6273568;28;20513;-65
2021/01/04 03:01:12;;;;;;;12.77;10.50;;;6.00;99.90;;;;;;6273990;28;20481;-65
2021/01/04 03:04:17;;;;;;;15.03;10.80;;;6.00;99.90;;;;;;6274478;28;20474;-67
2021/01/04 03:07:23;;;;;;;16.93;10.23;;;6.00;99.90;;;;;;6273893;28;20954;-66
2021/01/04 03:10:28;;;;;;;13.40;11.37;;;6.00;99.90;;;;;;6273736;28;20964;-64
2021/01/04 03:13:40;;;;;;;12.27;9.80;;;6.00;99.90;;;;;;6273562;28;20947;-65
2021/01/04 03:16:48;;;;;;;12.83;10.33;;;6.10;99.90;;;;;;6273729;28;20518;-66
2021/01/04 03:19:53;;;;;;;12.00;9.67;;;6.10;99.90;;;;;;6274200;28;20477;-65
2021/01/04 03:22:56;;;;;;;12.77;9.73;;;6.10;99.90;;;;;;6274096;28;20517;-65
2021/01/04 03:26:06;;;;;;;15.27;12.17;;;6.10;99.90;;;;;;6273888;28;20500;-67
2021/01/04 03:29:09;;;;;;;16.00;11.63;;;6.10;99.90;;;;;;6277267;28;20485;-65
2021/01/04 03:32:11;;;;;;;14.33;12.37;;;6.10;99.90;;;;;;6269921;28;20481;-65
2021/01/04 03:35:13;;;;;;;12.37;10.43;;;6.10;99.90;;;;;;6278112;28;20976;-65
2021/01/04 03:38:16;;;;;;;13.03;11.50;;;6.10;99.90;;;;;;6278009;28;20470;-65
2021/01/04 03:41:19;;;;;;;13.50;10.50;;;6.10;99.90;;;;;;6277854;28;20481;-64
2021/01/04 03:44:23;;;;;;;13.37;10.77;;;6.10;99.90;;;;;;6277862;28;20480;-65
2021/01/04 03:47:25;;;;;;;13.20;10.63;;;6.10;99.90;;;;;;6277840;28;20470;-65
2021/01/04 03:50:27;;;;;;;13.60;11.37;;;6.10;99.90;;;;;;6277834;28;20482;-64
2021/01/04 03:53:29;;;;;;;14.73;11.70;;;6.00;99.90;;;;;;6277975;28;20466;-64
2021/01/04 03:56:31;;;;;;;24.23;14.77;;;5.90;99.90;;;;;;6278056;28;20492;-65
2021/01/04 03:59:34;;;;;;;28.87;17.20;;;5.80;99.90;;;;;;6277716;28;20477;-64
2021/01/04 04:02:36;;;;;;;21.97;15.93;;;5.60;99.90;;;;;;6277579;28;20467;-64
2021/01/04 04:05:41;;;;;;;22.23;15.43;;;5.60;99.90;;;;;;6277828;28;20480;-64
2021/01/04 04:08:44;;;;;;;26.37;17.07;;;5.60;99.90;;;;;;6277600;28;20470;-64
2021/01/04 04:11:46;;;;;;;29.13;18.20;;;5.60;99.90;;;;;;6277474;28;20617;-64
2021/01/04 04:14:50;;;;;;;30.50;18.53;;;5.60;99.90;;;;;;6276987;28;20512;-65
2021/01/04 04:17:53;;;;;;;26.23;17.00;;;5.60;99.90;;;;;;6277442;28;20474;-64
2021/01/04 04:20:55;;;;;;;29.17;18.70;;;5.50;99.90;;;;;;6277178;28;20878;-64
2021/01/04 04:23:58;;;;;;;32.33;20.13;;;5.50;99.90;;;;;;6277123;28;20569;-67
2021/01/04 04:27:00;;;;;;;34.40;22.20;;;5.40;99.90;;;;;;6276931;28;20462;-66
2021/01/04 04:30:08;;;;;;;34.80;22.00;;;5.40;99.90;;;;;;6276852;28;20470;-65
2021/01/04 04:33:10;;;;;;;33.90;20.00;;;5.30;99.90;;;;;;6277058;28;20509;-65
2021/01/04 04:36:18;;;;;;;32.00;20.03;;;5.30;99.90;;;;;;6272165;28;20501;-63
2021/01/04 04:39:20;;;;;;;31.57;20.03;;;5.30;99.90;;;;;;6276371;28;20553;-63
2021/01/04 04:42:22;;;;;;;27.20;16.70;;;5.30;99.90;;;;;;6276441;28;20549;-64
2021/01/04 04:45:26;;;;;;;23.97;17.83;;;5.30;99.90;;;;;;6276675;28;20462;-63
2021/01/04 04:48:45;;;;;;;31.20;18.77;;;5.40;99.90;;;;;;6276579;28;20504;-64
2021/01/04 04:52:02;;;;;;;34.20;20.57;;;5.40;99.90;;;;;;6276300;28;20470;-64
2021/01/04 04:55:17;;;;;;;30.17;20.00;;;5.40;99.90;;;;;;6276343;28;20470;-65
2021/01/04 04:58:39;;;;;;;33.63;21.07;;;5.40;99.90;;;;;;6275991;28;20927;-65
2021/01/04 05:01:51;;;;;;;29.07;18.37;;;5.50;99.90;;;;;;6275882;28;20497;-65
2021/01/04 05:05:21;;;;;;;28.17;18.60;;;5.50;99.90;;;;;;6276044;28;20468;-64
2021/01/04 05:08:46;;;;;;;34.27;19.50;;;5.50;99.90;;;;;;6276235;28;20771;-64
2021/01/04 05:12:00;;;;;;;34.67;19.37;;;5.50;99.90;;;;;;6276018;28;20479;-64
2021/01/04 05:15:16;;;;;;;31.67;17.33;;;5.50;99.90;;;;;;6275962;28;20470;-64
2021/01/04 05:18:56;;;;;;;31.50;19.00;;;5.40;99.90;;;;;;6275658;28;20475;-64
2021/01/04 05:22:33;;;;;;;30.70;18.60;;;5.40;99.90;;;;;;6275880;28;20463;-64
2021/01/04 05:26:09;;;;;;;34.53;19.37;;;5.40;99.90;;;;;;6275943;28;20764;-64
2021/01/04 05:29:51;;;;;;;29.73;18.70;;;5.40;99.90;;;;;;6275357;28;20470;-64
2021/01/04 05:33:38;;;;;;;18.90;13.17;;;5.40;99.90;;;;;;6266294;28;20477;-63
2021/01/04 05:37:37;;;;;;;19.30;12.70;;;5.40;99.90;;;;;;6275233;28;20470;-64
2021/01/04 05:41:03;;;;;;;18.93;11.77;;;5.30;99.90;;;;;;6235478;28;20470;-63
2021/01/04 05:44:26;;;;;;;15.10;11.80;;;5.30;99.90;;;;;;6275352;28;20473;-63
2021/01/04 05:47:40;;;;;;;12.43;10.00;;;5.30;99.90;;;;;;6274871;28;20858;-63
2021/01/04 05:50:56;;;;;;;15.33;11.37;;;5.30;99.90;;;;;;6274314;28;20470;-63
2021/01/04 05:53:58;;;;;;;16.03;11.10;;;5.20;99.90;;;;;;6274921;28;20803;-64
2021/01/04 05:57:06;;;;;;;14.87;11.23;;;5.20;99.90;;;;;;6274859;28;20551;-63
2021/01/04 06:00:10;;;;;;;12.97;10.80;;;5.20;99.90;;;;;;6274801;28;20493;-64
2021/01/04 06:03:15;;;;;;;15.07;11.10;;;5.30;99.90;;;;;;6274750;28;20478;-62
2021/01/04 06:06:26;;;;;;;13.97;11.77;;;5.30;99.90;;;;;;6275181;28;20489;-61
2021/01/04 06:09:30;;;;;;;13.00;11.30;;;5.30;99.90;;;;;;6275216;28;20478;-61
2021/01/04 06:12:40;;;;;;;16.80;11.57;;;5.30;99.90;;;;;;6274718;28;20467;-61
2021/01/04 06:15:42;;;;;;;11.97;10.43;;;5.30;99.90;;;;;;6274501;28;20470;-62
2021/01/04 06:18:49;;;;;;;14.73;11.30;;;5.50;99.90;;;;;;6274532;28;20802;-61
2021/01/04 06:21:54;;;;;;;12.60;10.63;;;5.60;99.90;;;;;;6274587;28;20474;-62
2021/01/04 06:25:01;;;;;;;12.53;10.70;;;5.60;99.90;;;;;;6274868;28;20474;-61
2021/01/04 06:28:06;;;;;;;11.77;9.70;;;5.60;99.90;;;;;;6274416;28;20466;-61
2021/01/04 06:31:09;;;;;;;12.50;9.70;;;5.70;99.90;;;;;;6272696;28;20477;-62
2021/01/04 06:34:21;;;;;;;11.73;9.93;;;5.70;99.90;;;;;;6272126;28;20474;-61
2021/01/04 06:37:27;;;;;;;12.40;10.17;;;5.70;99.90;;;;;;6272184;28;20540;-61
2021/01/04 06:40:34;;;;;;;10.37;8.80;;;5.70;99.90;;;;;;6272237;28;20462;-61
2021/01/04 06:43:38;;;;;;;13.67;10.17;;;5.70;99.90;;;;;;6267828;28;20466;-61
2021/01/04 06:47:11;;;;;;;12.90;8.53;;;5.70;99.90;;;;;;6273392;28;20457;-61
2021/01/04 06:50:19;;;;;;;10.80;9.00;;;5.80;99.90;;;;;;6274210;28;20788;-61
2021/01/04 06:53:39;;;;;;;11.13;9.20;;;5.60;99.90;;;;;;6274159;28;20977;-61
2021/01/04 06:57:13;;;;;;;10.20;8.63;;;5.60;99.90;;;;;;6273907;28;20803;-62
2021/01/04 07:00:27;;;;;;;9.90;8.60;;;5.60;99.90;;;;;;6268948;28;20474;-61
2021/01/04 07:03:54;;;;;;;12.67;8.73;;;5.70;99.90;;;;;;6276837;28;20548;-62
2021/01/04 07:07:12;;;;;;;11.53;7.83;;;5.70;99.90;;;;;;6278743;28;20540;-61
2021/01/04 07:10:36;;;;;;;10.17;8.13;;;5.60;99.90;;;;;;6278787;28;20480;-61
2021/01/04 07:13:54;;;;;;;11.60;9.30;;;5.60;99.90;;;;;;6278499;28;20447;-62
2021/01/04 07:17:28;;;;;;;10.97;8.70;;;5.70;99.90;;;;;;6279223;28;20824;-61
2021/01/04 07:20:56;;;;;;;10.43;9.33;;;5.70;99.90;;;;;;6273981;28;20474;-61
2021/01/04 07:24:11;;;;;;;9.70;8.60;;;5.70;99.90;;;;;;6259208;28;20470;-62
2021/01/04 07:27:28;;;;;;;12.03;9.17;;;5.80;99.90;;;;;;6278342;28;20466;-61
2021/01/04 07:30:44;;;;;;;14.03;8.37;;;5.80;99.90;;;;;;6278378;28;20474;-62
2021/01/04 07:33:56;;;;;;;13.17;9.07;;;5.80;99.90;;;;;;6278101;28;20922;-62
2021/01/04 07:37:22;;;;;;;11.30;8.80;;;5.80;99.90;;;;;;6277867;28;20549;-62
2021/01/04 07:40:40;;;;;;;10.33;9.10;;;5.90;99.90;;;;;;6275181;28;20490;-62
2021/01/04 07:44:21;;;;;;;9.60;8.47;;;6.00;99.90;;;;;;6274872;28;20442;-61
2021/01/04 07:48:04;;;;;;;8.90;8.00;;;6.00;99.90;;;;;;6275234;28;20465;-62
2021/01/04 07:51:25;;;;;;;8.67;7.77;;;6.10;99.90;;;;;;6271031;28;20865;-62
2021/01/04 07:55:09;;;;;;;10.07;9.07;;;6.10;99.90;;;;;;6275217;28;20529;-63
2021/01/04 07:58:47;;;;;;;12.00;9.40;;;6.20;99.90;;;;;;6275452;28;20474;-62
2021/01/04 08:02:21;;;;;;;10.43;8.27;;;6.20;99.90;;;;;;6275562;28;20911;-62
2021/01/04 08:05:56;;;;;;;11.17;9.13;;;6.30;99.90;;;;;;6274523;28;20519;-62
2021/01/04 08:09:05;;;;;;;9.20;7.60;;;6.30;99.90;;;;;;6276762;28;20467;-62
2021/01/04 08:12:27;;;;;;;13.70;7.63;;;6.30;99.90;;;;;;6272355;28;20474;-62
2021/01/04 08:15:37;;;;;;;9.17;7.70;;;6.30;99.90;;;;;;6274420;28;20485;-66
2021/01/04 08:18:42;;;;;;;9.23;8.33;;;6.30;99.90;;;;;;6266417;28;20478;-67
2021/01/04 08:21:55;;;;;;;8.67;7.77;;;6.40;99.90;;;;;;6259141;28;20471;-66
2021/01/04 08:25:07;;;;;;;9.77;7.07;;;6.40;99.90;;;;;;6276878;28;20596;-65
2021/01/04 08:28:18;;;;;;;11.10;8.10;;;6.40;99.90;;;;;;6275926;28;20467;-63
2021/01/04 08:31:47;;;;;;;11.50;8.20;;;6.40;99.90;;;;;;6276826;28;20478;-64
2021/01/04 08:34:50;;;;;;;11.50;8.80;;;6.40;99.90;;;;;;6265727;28;20461;-65
2021/01/04 08:37:52;;;;;;;11.43;8.70;;;6.40;99.90;;;;;;6276724;28;20462;-63
2021/01/04 08:41:02;;;;;;;9.93;7.50;;;6.40;99.90;;;;;;6276203;28;20969;-63
2021/01/04 08:44:16;;;;;;;11.90;9.80;;;6.30;99.90;;;;;;6276741;28;20462;-64
2021/01/04 08:47:27;;;;;;;18.33;13.93;;;6.30;99.90;;;;;;6276420;28;20473;-66
2021/01/04 08:50:36;;;;;;;22.13;14.93;;;6.30;99.90;;;;;;6276159;28;20467;-64
2021/01/04 08:53:38;;;;;;;25.20;16.30;;;6.20;99.90;;;;;;6260181;28;20466;-66
2021/01/04 08:56:44;;;;;;;27.23;18.47;;;6.10;99.90;;;;;;6272823;28;20497;-65
2021/01/04 08:59:59;;;;;;;24.13;16.10;;;6.10;99.90;;;;;;6276766;28;20470;-65
2021/01/04 09:03:01;;;;;;;24.87;16.93;;;6.10;99.90;;;;;;6276112;28;20458;-62
2021/01/04 09:06:23;;;;;;;30.90;21.77;;;6.10;99.90;;;;;;6275438;28;20462;-62
2021/01/04 09:09:35;;;;;;;26.80;18.53;;;6.10;99.90;;;;;;6274206;28;20466;-62
2021/01/04 09:12:45;;;;;;;24.33;18.60;;;6.00;99.90;;;;;;6273559;28;20470;-62
2021/01/04 09:15:48;;;;;;;27.07;18.50;;;6.00;99.90;;;;;;6275225;28;20471;-61
2021/01/04 09:18:53;;;;;;;24.80;17.57;;;5.90;99.90;;;;;;6273404;28;20482;-61
2021/01/04 09:22:06;;;;;;;25.20;19.37;;;5.80;99.90;;;;;;6273809;28;20985;-62
2021/01/04 09:25:21;;;;;;;26.57;18.30;;;5.80;99.90;;;;;;6273949;28;20546;-61
2021/01/04 09:28:25;;;;;;;23.60;17.97;;;5.80;99.90;;;;;;6272985;28;20475;-61
2021/01/04 09:31:27;;;;;;;24.23;17.47;;;5.80;99.90;;;;;;6274621;28;20466;-61
2021/01/04 09:34:31;;;;;;;24.17;16.17;;;5.80;99.90;;;;;;6299394;28;21553;-61
2021/01/04 09:37:35;;;;;;;23.80;16.93;;;5.80;99.90;;;;;;6298616;28;20920;-62
2021/01/04 09:40:38;;;;;;;21.97;16.80;;;5.90;99.90;;;;;;6299666;28;20457;-62
2021/01/04 09:43:42;;;;;;;25.13;17.50;;;6.00;99.90;;;;;;6298965;28;20444;-62
2021/01/04 09:46:48;;;;;;;21.63;15.93;;;6.10;99.90;;;;;;6296369;28;20444;-62
2021/01/04 09:49:55;;;;;;;24.60;16.50;;;6.20;99.90;;;;;;6272871;28;20459;-63
2021/01/04 09:53:00;;;;;;;16.63;14.80;;;6.30;99.90;;;;;;6273284;28;20463;-62
2021/01/04 09:56:07;;;;;;;21.03;15.10;;;6.30;99.90;;;;;;6268373;28;20468;-62
2021/01/04 09:59:18;;;;;;;20.53;15.90;;;6.30;99.90;;;;;;6272841;28;20470;-62
2021/01/04 10:02:25;;;;;;;21.03;16.47;;;6.40;99.90;;;;;;6270768;28;20479;-63
2021/01/04 10:05:33;;;;;;;22.20;16.93;;;6.40;99.90;;;;;;6273346;28;20470;-63
2021/01/04 10:08:38;;;;;;;19.63;14.67;;;6.50;99.90;;;;;;6274340;28;20508;-64
2021/01/04 10:11:41;;;;;;;23.27;16.40;;;6.50;99.90;;;;;;6274446;28;20503;-67
2021/01/04 10:14:46;;;;;;;18.37;15.10;;;6.60;99.90;;;;;;6274716;28;20579;-64
2021/01/04 10:18:00;;;;;;;19.90;15.23;;;6.70;99.90;;;;;;6274617;28;20470;-64
2021/01/04 10:21:04;;;;;;;21.43;14.87;;;6.80;99.90;;;;;;6259580;28;20490;-65
2021/01/04 10:24:13;;;;;;;20.30;13.97;;;6.90;99.90;;;;;;6249786;28;20793;-63
2021/01/04 10:27:28;;;;;;;14.37;12.83;;;7.00;99.90;;;;;;6270616;28;20463;-64
2021/01/04 10:31:01;;;;;;;16.07;12.73;;;7.10;99.90;;;;;;6273046;28;20966;-62
2021/01/04 10:34:06;;;;;;;15.73;12.13;;;7.20;99.90;;;;;;6272969;28;20466;-62
2021/01/04 10:37:34;;;;;;;13.20;11.03;;;7.30;99.90;;;;;;6272171;28;20466;-62
2021/01/04 10:40:47;;;;;;;16.90;12.87;;;7.30;99.90;;;;;;6276207;28;20466;-62
2021/01/04 10:43:50;;;;;;;13.27;11.10;;;7.30;99.90;;;;;;6275137;28;20471;-62
2021/01/04 10:46:58;;;;;;;12.50;10.37;;;7.30;99.90;;;;;;6277585;28;20932;-63
2021/01/04 10:50:12;;;;;;;11.40;9.97;;;7.30;99.90;;;;;;6277772;28;20570;-62
2021/01/04 10:53:29;;;;;;;13.50;11.13;;;7.20;99.90;;;;;;6276215;28;20820;-62
2021/01/04 10:56:42;;;;;;;13.70;11.20;;;7.20;99.90;;;;;;6276046;28;20466;-63
2021/01/04 10:59:47;;;;;;;11.07;10.03;;;7.10;99.90;;;;;;6274667;28;20481;-63
2021/01/04 11:02:53;;;;;;;13.90;12.10;;;7.00;99.90;;;;;;6277231;28;20786;-63
2021/01/04 11:05:55;;;;;;;13.93;11.27;;;6.90;99.90;;;;;;6275459;28;20477;-62
2021/01/04 11:08:58;;;;;;;11.63;10.10;;;6.80;99.90;;;;;;6275772;28;20559;-62
2021/01/04 11:12:11;;;;;;;11.90;10.17;;;6.70;99.90;;;;;;6276999;28;20981;-63
2021/01/04 11:15:24;;;;;;;12.30;10.17;;;6.70;99.90;;;;;;6277995;28;20470;-63
2021/01/04 11:18:27;;;;;;;11.47;9.43;;;6.70;99.90;;;;;;6276612;28;20521;-63
2021/01/04 11:21:35;;;;;;;12.47;10.40;;;6.60;99.90;;;;;;6272615;28;20466;-65
2021/01/04 11:24:37;;;;;;;10.80;9.90;;;6.70;99.90;;;;;;6276106;28;20493;-63
2021/01/04 11:27:40;;;;;;;12.70;10.07;;;6.70;99.90;;;;;;6277237;28;20996;-63
2021/01/04 11:30:42;;;;;;;11.33;9.67;;;6.80;99.90;;;;;;6277615;28;20474;-63
2021/01/04 11:33:45;;;;;;;10.20;9.20;;;6.80;99.90;;;;;;6278072;28;20470;-63
2021/01/04 11:36:48;;;;;;;13.27;10.47;;;6.90;99.90;;;;;;6278088;28;20477;-62
2021/01/04 11:39:50;;;;;;;11.60;10.40;;;6.90;99.90;;;;;;6278044;28;20474;-63
2021/01/04 11:42:52;;;;;;;11.40;10.20;;;6.90;99.90;;;;;;6277665;28;20466;-63
2021/01/04 11:45:54;;;;;;;14.50;10.47;;;6.90;99.90;;;;;;6277871;28;20808;-63
2021/01/04 11:48:59;;;;;;;11.67;10.63;;;7.00;99.90;;;;;;6276620;28;20470;-63
2021/01/04 11:52:01;;;;;;;11.87;10.67;;;7.00;99.90;;;;;;6277683;28;20532;-62
2021/01/04 11:55:05;;;;;;;13.20;11.67;;;7.10;99.90;;;;;;6277628;28;20474;-63
2021/01/04 11:58:07;;;;;;;13.10;11.70;;;7.10;99.90;;;;;;6277256;28;20817;-63
2021/01/04 12:01:10;;;;;;;17.37;13.47;;;7.10;99.90;;;;;;6277302;28;20492;-63
2021/01/04 12:04:13;;;;;;;21.80;16.80;;;7.00;99.90;;;;;;6277678;28;20484;-63
2021/01/04 12:07:15;;;;;;;16.80;15.07;;;7.00;99.90;;;;;;6277257;28;20474;-62
2021/01/04 12:10:19;;;;;;;18.60;15.73;;;6.90;99.90;;;;;;6277253;28;20812;-64
2021/01/04 12:13:21;;;;;;;21.53;17.37;;;6.90;99.90;;;;;;6276749;28;20934;-71
2021/01/04 12:16:23;;;;;;;20.30;14.97;;;6.80;99.90;;;;;;6276920;28;20568;-62
2021/01/04 12:19:26;;;;;;;19.80;16.30;;;6.90;99.90;;;;;;6274730;28;20474;-62
2021/01/04 12:22:29;;;;;;;20.20;16.90;;;6.90;99.90;;;;;;6250552;28;20459;-60
2021/01/04 12:25:31;;;;;;;21.03;15.60;;;6.90;99.90;;;;;;6256143;28;20443;-60
2021/01/04 12:28:33;;;;;;;22.20;17.17;;;6.90;99.90;;;;;;6276524;28;20448;-62
2021/01/04 12:31:38;;;;;;;20.23;16.30;;;6.90;99.90;;;;;;6276279;28;20458;-61
2021/01/04 12:34:42;;;;;;;24.17;15.60;;;6.90;99.90;;;;;;6276741;28;20438;-62
2021/01/04 12:37:44;;;;;;;21.60;16.03;;;6.80;99.90;;;;;;6276383;28;20807;-64
2021/01/04 12:40:49;;;;;;;23.33;18.40;;;6.80;99.90;;;;;;6276656;28;20477;-64
2021/01/04 12:43:51;;;;;;;18.63;15.30;;;6.80;99.90;;;;;;6276369;28;20458;-64
2021/01/04 12:46:56;;;;;;;22.27;17.17;;;6.80;99.90;;;;;;6276565;28;20458;-63
2021/01/04 12:49:59;;;;;;;18.00;16.10;;;6.80;99.90;;;;;;6276416;28;20559;-64
2021/01/04 12:53:02;;;;;;;17.70;15.87;;;6.90;99.90;;;;;;6276221;28;20600;-63
2021/01/04 12:56:05;;;;;;;21.30;17.40;;;6.90;99.90;;;;;;6276433;28;20473;-65
2021/01/04 12:59:07;;;;;;;21.53;16.83;;;6.90;99.90;;;;;;6275991;28;20489;-65
2021/01/04 13:02:12;;;;;;;19.37;16.20;;;6.90;99.90;;;;;;6275947;28;20785;-64
2021/01/04 13:05:17;;;;;;;19.90;15.80;;;7.00;99.90;;;;;;6276330;28;20477;-65
2021/01/04 13:08:22;;;;;;;24.40;16.60;;;7.10;99.90;;;;;;6267404;28;20474;-63
2021/01/04 13:11:24;;;;;;;15.40;13.83;;;7.10;99.90;;;;;;6275865;28;20478;-65
2021/01/04 13:14:26;;;;;;;16.13;12.80;;;7.20;99.90;;;;;;6275445;28;20482;-65
2021/01/04 13:17:29;;;;;;;14.97;11.60;;;7.30;99.90;;;;;;6275312;28;20470;-63
2021/01/04 13:20:32;;;;;;;12.90;10.90;;;7.30;99.90;;;;;;6264593;28;21009;-62
2021/01/04 13:23:35;;;;;;;10.77;9.67;;;7.30;99.90;;;;;;6250762;28;20467;-63
2021/01/04 13:26:41;;;;;;;10.03;8.13;;;7.30;99.90;;;;;;6264717;28;20470;-64
2021/01/04 13:29:43;;;;;;;8.80;8.00;;;7.30;99.90;;;;;;6274526;28;20478;-65
2021/01/04 13:32:49;;;;;;;8.97;8.13;;;7.40;99.90;;;;;;6275418;28;20476;-64
2021/01/04 13:35:52;;;;;;;10.70;8.40;;;7.40;99.90;;;;;;6275260;28;20470;-65
2021/01/04 13:38:54;;;;;;;11.63;10.47;;;7.40;99.90;;;;;;6275332;28;20488;-63
2021/01/04 13:41:59;;;;;;;16.83;11.17;;;7.40;99.90;;;;;;6274991;28;20503;-64
2021/01/04 13:45:02;;;;;;;13.57;12.27;;;7.40;99.90;;;;;;6275087;28;20555;-63
2021/01/04 13:48:06;;;;;;;19.07;14.93;;;7.30;99.90;;;;;;6274875;28;20472;-62
2021/01/04 13:51:11;;;;;;;14.80;13.20;;;7.30;99.90;;;;;;6274919;28;20478;-63
2021/01/04 13:54:14;;;;;;;16.03;13.17;;;7.20;99.90;;;;;;6274782;28;20817;-63
2021/01/04 13:57:17;;;;;;;13.77;11.97;;;7.20;99.90;;;;;;6274776;28;20477;-64
2021/01/04 14:00:20;;;;;;;15.10;13.60;;;7.20;99.90;;;;;;6274759;28;20530;-63
2021/01/04 14:03:22;;;;;;;19.47;14.90;;;7.20;99.90;;;;;;6274833;28;20581;-61
2021/01/04 14:06:25;;;;;;;19.93;16.50;;;7.10;99.90;;;;;;6274513;28;20920;-63
2021/01/04 14:09:28;;;;;;;17.80;15.60;;;7.10;99.90;;;;;;6274532;28;20485;-63
2021/01/04 14:12:30;;;;;;;19.03;16.93;;;7.00;99.90;;;;;;6261556;28;20621;-66
2021/01/04 14:15:33;;;;;;;33.00;26.10;;;7.00;99.90;;;;;;6249201;28;20479;-62
2021/01/04 14:18:36;;;;;;;28.07;20.47;;;7.00;99.90;;;;;;6270970;28;20467;-62
2021/01/04 14:21:39;;;;;;;25.03;20.53;;;7.00;99.90;;;;;;6260886;28;20474;-62
2021/01/04 14:24:43;;;;;;;25.00;18.57;;;6.90;99.90;;;;;;6274608;28;20485;-63
2021/01/04 14:27:45;;;;;;;21.20;17.20;;;6.90;99.90;;;;;;6265299;28;20481;-64
2021/01/04 14:30:48;;;;;;;19.53;15.73;;;6.90;99.90;;;;;;6249476;28;20487;-64
2021/01/04 14:33:51;;;;;;;18.40;16.60;;;6.90;99.90;;;;;;6249506;28;20482;-63
2021/01/04 14:36:54;;;;;;;21.63;19.53;;;6.80;99.90;;;;;;6249433;28;20471;-63
2021/01/04 14:39:56;;;;;;;19.70;17.37;;;6.80;99.90;;;;;;6249565;28;20483;-64
2021/01/04 14:42:59;;;;;;;25.70;19.77;;;6.90;99.90;;;;;;6249229;28;20478;-62
2021/01/04 14:46:01;;;;;;;21.93;18.10;;;6.90;99.90;;;;;;6249663;28;20557;-62
2021/01/04 14:49:04;;;;;;;23.67;19.33;;;6.90;99.90;;;;;;6258682;28;20462;-62
2021/01/04 14:52:09;;;;;;;20.87;18.20;;;6.90;99.90;;;;;;6273260;28;20811;-62
2021/01/04 14:55:15;;;;;;;18.43;16.47;;;6.90;99.90;;;;;;6272869;28;20523;-62
2021/01/04 14:58:17;;;;;;;22.33;19.30;;;6.90;99.90;;;;;;6273001;28;20988;-63
2021/01/04 15:01:20;;;;;;;20.37;16.20;;;6.90;99.90;;;;;;6272540;28;20481;-62
2021/01/04 15:04:23;;;;;;;20.83;17.87;;;6.90;99.90;;;;;;6273144;28;20958;-63
2021/01/04 15:07:26;;;;;;;20.67;17.13;;;7.00;99.90;;;;;;6273026;28;20796;-62
2021/01/04 15:10:30;;;;;;;20.37;18.10;;;7.00;99.90;;;;;;6272491;28;20474;-62
2021/01/04 15:13:32;;;;;;;20.13;16.27;;;7.00;99.90;;;;;;6272370;28;20455;-62
2021/01/04 15:16:40;;;;;;;19.40;15.67;;;6.90;99.90;;;;;;6263882;28;20463;-62
2021/01/04 15:19:42;;;;;;;18.20;12.93;;;6.90;99.90;;;;;;6270550;28;20471;-63
2021/01/04 15:22:45;;;;;;;16.83;13.33;;;7.00;99.90;;;;;;6272276;28;20446;-62
2021/01/04 15:25:47;;;;;;;16.63;11.77;;;7.00;99.90;;;;;;6276931;28;20749;-62
2021/01/04 15:28:52;;;;;;;14.23;12.73;;;7.00;99.90;;;;;;6278271;28;20470;-62
2021/01/04 15:31:55;;;;;;;13.30;10.27;;;7.00;99.90;;;;;;6277427;28;20462;-62
2021/01/04 15:34:58;;;;;;;11.20;9.87;;;7.10;99.90;;;;;;6278166;28;20472;-62
2021/01/04 15:38:01;;;;;;;11.97;10.77;;;7.10;99.90;;;;;;6278375;28;20473;-62
2021/01/04 15:41:05;;;;;;;11.57;10.37;;;7.10;99.90;;;;;;6276823;28;20462;-62
2021/01/04 15:44:07;;;;;;;13.50;10.53;;;7.00;99.90;;;;;;6276057;28;20465;-62
2021/01/04 15:47:10;;;;;;;13.93;11.40;;;6.90;99.90;;;;;;6277260;28;20477;-62
2021/01/04 15:50:13;;;;;;;15.10;13.57;;;6.90;99.90;;;;;;6277370;28;20496;-65
2021/01/04 15:53:16;;;;;;;16.23;13.40;;;7.00;99.90;;;;;;6277754;28;20559;-62
2021/01/04 15:56:18;;;;;;;15.80;14.10;;;6.90;99.90;;;;;;6277654;28;20802;-62
2021/01/04 15:59:21;;;;;;;19.03;15.80;;;7.00;99.90;;;;;;6277298;28;20987;-63
2021/01/04 16:02:23;;;;;;;21.43;16.47;;;7.00;99.90;;;;;;6277593;28;20496;-63
2021/01/04 16:05:25;;;;;;;20.87;17.20;;;7.00;99.90;;;;;;6277787;28;20462;-63
2021/01/04 16:08:31;;;;;;;22.83;18.80;;;6.90;99.90;;;;;;6277663;28;20470;-64
2021/01/04 16:11:33;;;;;;;30.13;20.17;;;6.90;99.90;;;;;;6277246;28;20471;-63
2021/01/04 16:14:35;;;;;;;30.00;20.20;;;6.90;99.90;;;;;;6277158;28;20974;-65
2021/01/04 16:17:37;;;;;;;29.63;20.93;;;6.90;99.90;;;;;;6276957;28;20548;-66